sensor_id;sensor_type;location;lat;lon;timestamp;P1;durP1;ratioP1;P2;durP2;ratioP2
7881;SDS011;3986;41.884;23.466;2022-12-11T00:00:27;8.50;;;6.40;;
7881;SDS011;3986;41.884;23.466;2022-12-11T00:02:53;18.10;;;7.70;;
7881;SDS011;3986;41.884;23.466;2022-12-11T00:05:20;11.67;;;4.50;;
7881;SDS011;3986;41.884;23.466;2022-12-11T00:07:48;9.67;;;4.80;;
7881;SDS011;3986;41.884;23.466;2022-12-11T00:10:15;12.97;;;6.13;;
7881;SDS011;3986;41.884;23.466;2022-12-11T00:12:43;10.87;;;5.70;;
7881;SDS011;3986;41.884;23.466;2022-12-11T00:15:10;5.43;;;4.00;;
7881;SDS011;3986;41.884;23.466;2022-12-11T00:17:36;7.57;;;4.27;;
7881;SDS011;3986;41.884;23.466;2022-12-11T00:20:04;6.07;;;4.30;;
7881;SDS011;3986;41.884;23.466;2022-12-11T00:22:32;7.40;;;5.40;;
7881;SDS011;3986;41.884;23.466;2022-12-11T00:24:59;9.87;;;9.00;;
7881;SDS011;3986;41.884;23.466;2022-12-11T00:27:26;17.77;;;11.13;;
7881;SDS011;3986;41.884;23.466;2022-12-11T00:29:54;22.10;;;19.77;;
7881;SDS011;3986;41.884;23.466;2022-12-11T00:32:20;21.27;;;17.10;;
7881;SDS011;3986;41.884;23.466;2022-12-11T00:34:47;16.57;;;13.17;;
7881;SDS011;3986;41.884;23.466;2022-12-11T00:37:14;14.00;;;11.70;;
7881;SDS011;3986;41.884;23.466;2022-12-11T00:39:41;10.87;;;9.20;;
7881;SDS011;3986;41.884;23.466;2022-12-11T00:42:08;7.53;;;6.77;;
7881;SDS011;3986;41.884;23.466;2022-12-11T00:44:35;10.57;;;8.10;;
7881;SDS011;3986;41.884;23.466;2022-12-11T00:47:03;9.13;;;7.77;;
7881;SDS011;3986;41.884;23.466;2022-12-11T00:49:30;7.93;;;7.10;;
7881;SDS011;3986;41.884;23.466;2022-12-11T00:51:57;13.63;;;6.27;;
7881;SDS011;3986;41.884;23.466;2022-12-11T00:54:24;8.90;;;5.20;;
7881;SDS011;3986;41.884;23.466;2022-12-11T00:56:50;10.43;;;4.83;;
7881;SDS011;3986;41.884;23.466;2022-12-11T00:59:17;10.77;;;4.37;;
7881;SDS011;3986;41.884;23.466;2022-12-11T01:01:44;6.30;;;3.63;;
7881;SDS011;3986;41.884;23.466;2022-12-11T01:04:12;4.23;;;3.80;;
7881;SDS011;3986;41.884;23.466;2022-12-11T01:06:39;7.13;;;4.57;;
7881;SDS011;3986;41.884;23.466;2022-12-11T01:09:05;4.50;;;4.10;;
7881;SDS011;3986;41.884;23.466;2022-12-11T01:11:50;14.20;;;4.90;;
7881;SDS011;3986;41.884;23.466;2022-12-11T01:14:17;8.80;;;3.90;;
7881;SDS011;3986;41.884;23.466;2022-12-11T01:16:45;6.23;;;3.63;;
7881;SDS011;3986;41.884;23.466;2022-12-11T01:19:13;4.97;;;4.10;;
7881;SDS011;3986;41.884;23.466;2022-12-11T01:21:40;4.73;;;3.57;;
7881;SDS011;3986;41.884;23.466;2022-12-11T01:24:06;7.30;;;4.33;;
7881;SDS011;3986;41.884;23.466;2022-12-11T01:26:33;5.80;;;3.93;;
7881;SDS011;3986;41.884;23.466;2022-12-11T01:29:00;10.77;;;4.60;;
7881;SDS011;3986;41.884;23.466;2022-12-11T01:31:27;11.83;;;4.13;;
7881;SDS011;3986;41.884;23.466;2022-12-11T01:33:54;3.33;;;3.10;;
7881;SDS011;3986;41.884;23.466;2022-12-11T01:36:23;10.70;;;4.17;;
7881;SDS011;3986;41.884;23.466;2022-12-11T01:38:50;11.47;;;4.33;;
7881;SDS011;3986;41.884;23.466;2022-12-11T01:41:18;4.90;;;3.40;;
7881;SDS011;3986;41.884;23.466;2022-12-11T01:43:55;5.50;;;3.70;;
7881;SDS011;3986;41.884;23.466;2022-12-11T01:46:26;14.97;;;4.80;;
7881;SDS011;3986;41.884;23.466;2022-12-11T01:48:53;14.63;;;8.27;;
7881;SDS011;3986;41.884;23.466;2022-12-11T01:51:22;13.80;;;8.57;;
7881;SDS011;3986;41.884;23.466;2022-12-11T01:53:50;16.10;;;8.87;;
7881;SDS011;3986;41.884;23.466;2022-12-11T01:56:22;17.43;;;9.30;;
7881;SDS011;3986;41.884;23.466;2022-12-11T01:58:49;11.83;;;9.87;;
7881;SDS011;3986;41.884;23.466;2022-12-11T02:01:21;13.43;;;10.17;;
7881;SDS011;3986;41.884;23.466;2022-12-11T02:04:02;15.37;;;9.53;;
7881;SDS011;3986;41.884;23.466;2022-12-11T02:06:32;12.23;;;6.70;;
7881;SDS011;3986;41.884;23.466;2022-12-11T02:09:01;11.37;;;5.90;;
7881;SDS011;3986;41.884;23.466;2022-12-11T02:11:32;16.83;;;7.77;;
7881;SDS011;3986;41.884;23.466;2022-12-11T02:14:07;16.10;;;6.73;;
7881;SDS011;3986;41.884;23.466;2022-12-11T02:16:44;6.77;;;6.27;;
7881;SDS011;3986;41.884;23.466;2022-12-11T02:19:17;7.47;;;6.20;;
7881;SDS011;3986;41.884;23.466;2022-12-11T02:21:57;11.80;;;6.50;;
7881;SDS011;3986;41.884;23.466;2022-12-11T02:24:31;11.37;;;6.70;;
7881;SDS011;3986;41.884;23.466;2022-12-11T02:27:29;7.27;;;6.53;;
7881;SDS011;3986;41.884;23.466;2022-12-11T02:30:03;16.30;;;9.77;;
7881;SDS011;3986;41.884;23.466;2022-12-11T02:32:33;17.77;;;10.03;;
7881;SDS011;3986;41.884;23.466;2022-12-11T02:35:06;19.03;;;9.90;;
7881;SDS011;3986;41.884;23.466;2022-12-11T02:37:37;17.23;;;9.93;;
7881;SDS011;3986;41.884;23.466;2022-12-11T02:40:07;14.70;;;9.77;;
7881;SDS011;3986;41.884;23.466;2022-12-11T02:42:37;19.37;;;10.73;;
7881;SDS011;3986;41.884;23.466;2022-12-11T02:45:08;14.07;;;10.47;;
7881;SDS011;3986;41.884;23.466;2022-12-11T02:47:37;15.20;;;7.90;;
7881;SDS011;3986;41.884;23.466;2022-12-11T02:50:06;12.10;;;7.20;;
7881;SDS011;3986;41.884;23.466;2022-12-11T02:52:39;15.10;;;9.73;;
7881;SDS011;3986;41.884;23.466;2022-12-11T02:55:08;16.80;;;10.47;;
7881;SDS011;3986;41.884;23.466;2022-12-11T02:57:37;14.07;;;8.70;;
7881;SDS011;3986;41.884;23.466;2022-12-11T03:00:10;18.13;;;11.17;;
7881;SDS011;3986;41.884;23.466;2022-12-11T03:02:38;20.10;;;11.43;;
7881;SDS011;3986;41.884;23.466;2022-12-11T03:05:06;16.27;;;10.33;;
7881;SDS011;3986;41.884;23.466;2022-12-11T03:07:35;16.87;;;9.70;;
7881;SDS011;3986;41.884;23.466;2022-12-11T03:10:04;18.90;;;10.33;;
7881;SDS011;3986;41.884;23.466;2022-12-11T03:12:33;20.23;;;11.73;;
7881;SDS011;3986;41.884;23.466;2022-12-11T03:15:03;11.43;;;8.93;;
7881;SDS011;3986;41.884;23.466;2022-12-11T03:17:37;18.87;;;9.03;;
7881;SDS011;3986;41.884;23.466;2022-12-11T03:20:15;9.73;;;7.20;;
7881;SDS011;3986;41.884;23.466;2022-12-11T03:22:48;8.10;;;7.33;;
7881;SDS011;3986;41.884;23.466;2022-12-11T03:25:21;11.07;;;6.83;;
7881;SDS011;3986;41.884;23.466;2022-12-11T03:27:52;20.93;;;18.93;;
7881;SDS011;3986;41.884;23.466;2022-12-11T03:30:23;20.03;;;18.23;;
7881;SDS011;3986;41.884;23.466;2022-12-11T03:32:54;19.90;;;18.10;;
7881;SDS011;3986;41.884;23.466;2022-12-11T03:35:25;22.37;;;20.03;;
7881;SDS011;3986;41.884;23.466;2022-12-11T03:37:55;18.63;;;17.03;;
7881;SDS011;3986;41.884;23.466;2022-12-11T03:40:25;20.03;;;18.17;;
7881;SDS011;3986;41.884;23.466;2022-12-11T03:42:54;21.47;;;19.43;;
7881;SDS011;3986;41.884;23.466;2022-12-11T03:45:22;20.57;;;18.83;;
7881;SDS011;3986;41.884;23.466;2022-12-11T03:47:50;17.43;;;15.83;;
7881;SDS011;3986;41.884;23.466;2022-12-11T03:50:20;14.57;;;13.07;;
7881;SDS011;3986;41.884;23.466;2022-12-11T03:52:48;10.90;;;10.00;;
7881;SDS011;3986;41.884;23.466;2022-12-11T03:55:16;9.47;;;6.47;;
7881;SDS011;3986;41.884;23.466;2022-12-11T03:57:46;8.17;;;6.27;;
7881;SDS011;3986;41.884;23.466;2022-12-11T04:00:14;16.30;;;9.80;;
7881;SDS011;3986;41.884;23.466;2022-12-11T04:02:43;59.60;;;44.00;;
7881;SDS011;3986;41.884;23.466;2022-12-11T04:05:32;57.50;;;51.37;;
7881;SDS011;3986;41.884;23.466;2022-12-11T04:07:58;47.70;;;43.33;;
7881;SDS011;3986;41.884;23.466;2022-12-11T04:10:25;36.07;;;32.63;;
7881;SDS011;3986;41.884;23.466;2022-12-11T04:12:52;22.43;;;20.47;;
7881;SDS011;3986;41.884;23.466;2022-12-11T04:15:19;15.43;;;14.03;;
7881;SDS011;3986;41.884;23.466;2022-12-11T04:17:46;17.47;;;15.77;;
7881;SDS011;3986;41.884;23.466;2022-12-11T04:20:32;20.13;;;17.10;;
7881;SDS011;3986;41.884;23.466;2022-12-11T04:23:16;23.47;;;21.30;;
7881;SDS011;3986;41.884;23.466;2022-12-11T04:26:04;23.20;;;20.87;;
7881;SDS011;3986;41.884;23.466;2022-12-11T04:28:31;23.03;;;19.30;;
7881;SDS011;3986;41.884;23.466;2022-12-11T04:30:59;19.97;;;18.27;;
7881;SDS011;3986;41.884;23.466;2022-12-11T04:33:26;22.30;;;20.60;;
7881;SDS011;3986;41.884;23.466;2022-12-11T04:35:54;20.37;;;18.57;;
7881;SDS011;3986;41.884;23.466;2022-12-11T04:38:22;19.53;;;17.67;;
7881;SDS011;3986;41.884;23.466;2022-12-11T04:40:55;45.30;;;33.97;;
7881;SDS011;3986;41.884;23.466;2022-12-11T04:43:23;38.07;;;33.13;;
7881;SDS011;3986;41.884;23.466;2022-12-11T04:45:49;33.77;;;30.27;;
7881;SDS011;3986;41.884;23.466;2022-12-11T04:48:16;28.67;;;24.97;;
7881;SDS011;3986;41.884;23.466;2022-12-11T04:50:43;26.70;;;24.50;;
7881;SDS011;3986;41.884;23.466;2022-12-11T04:53:11;28.33;;;23.83;;
7881;SDS011;3986;41.884;23.466;2022-12-11T04:55:38;32.00;;;24.80;;
7881;SDS011;3986;41.884;23.466;2022-12-11T04:58:05;29.87;;;23.40;;
7881;SDS011;3986;41.884;23.466;2022-12-11T05:00:31;26.20;;;20.73;;
7881;SDS011;3986;41.884;23.466;2022-12-11T05:02:58;17.70;;;15.60;;
7881;SDS011;3986;41.884;23.466;2022-12-11T05:05:25;23.40;;;20.93;;
7881;SDS011;3986;41.884;23.466;2022-12-11T05:07:52;22.00;;;19.60;;
7881;SDS011;3986;41.884;23.466;2022-12-11T05:10:20;24.50;;;18.93;;
7881;SDS011;3986;41.884;23.466;2022-12-11T05:12:46;23.97;;;17.30;;
7881;SDS011;3986;41.884;23.466;2022-12-11T05:15:13;26.50;;;19.03;;
7881;SDS011;3986;41.884;23.466;2022-12-11T05:17:40;29.30;;;19.20;;
7881;SDS011;3986;41.884;23.466;2022-12-11T05:20:07;26.60;;;18.07;;
7881;SDS011;3986;41.884;23.466;2022-12-11T05:22:34;17.77;;;12.90;;
7881;SDS011;3986;41.884;23.466;2022-12-11T05:25:02;12.80;;;11.47;;
7881;SDS011;3986;41.884;23.466;2022-12-11T05:27:30;21.50;;;17.40;;
7881;SDS011;3986;41.884;23.466;2022-12-11T05:29:58;15.13;;;13.27;;
7881;SDS011;3986;41.884;23.466;2022-12-11T05:32:25;15.27;;;12.10;;
7881;SDS011;3986;41.884;23.466;2022-12-11T05:34:51;12.93;;;8.80;;
7881;SDS011;3986;41.884;23.466;2022-12-11T05:37:18;39.07;;;30.90;;
7881;SDS011;3986;41.884;23.466;2022-12-11T05:39:45;33.27;;;25.00;;
7881;SDS011;3986;41.884;23.466;2022-12-11T05:42:12;29.47;;;26.27;;
7881;SDS011;3986;41.884;23.466;2022-12-11T05:44:40;28.70;;;22.07;;
7881;SDS011;3986;41.884;23.466;2022-12-11T05:47:06;28.97;;;20.47;;
7881;SDS011;3986;41.884;23.466;2022-12-11T05:49:33;22.13;;;19.87;;
7881;SDS011;3986;41.884;23.466;2022-12-11T05:52:00;26.87;;;23.00;;
7881;SDS011;3986;41.884;23.466;2022-12-11T05:54:27;35.27;;;29.93;;
7881;SDS011;3986;41.884;23.466;2022-12-11T05:56:53;37.33;;;30.93;;
7881;SDS011;3986;41.884;23.466;2022-12-11T05:59:20;48.23;;;31.83;;
7881;SDS011;3986;41.884;23.466;2022-12-11T06:01:48;36.93;;;26.57;;
7881;SDS011;3986;41.884;23.466;2022-12-11T06:04:15;35.67;;;26.13;;
7881;SDS011;3986;41.884;23.466;2022-12-11T06:06:42;33.07;;;26.40;;
7881;SDS011;3986;41.884;23.466;2022-12-11T06:09:10;37.83;;;30.67;;
7881;SDS011;3986;41.884;23.466;2022-12-11T06:11:38;48.53;;;35.90;;
7881;SDS011;3986;41.884;23.466;2022-12-11T06:14:05;44.93;;;32.73;;
7881;SDS011;3986;41.884;23.466;2022-12-11T06:16:32;36.67;;;32.73;;
7881;SDS011;3986;41.884;23.466;2022-12-11T06:19:00;30.23;;;27.10;;
7881;SDS011;3986;41.884;23.466;2022-12-11T06:21:27;56.27;;;50.57;;
7881;SDS011;3986;41.884;23.466;2022-12-11T06:23:57;45.73;;;41.40;;
7881;SDS011;3986;41.884;23.466;2022-12-11T06:26:27;39.10;;;33.10;;
7881;SDS011;3986;41.884;23.466;2022-12-11T06:28:54;39.40;;;35.47;;
7881;SDS011;3986;41.884;23.466;2022-12-11T06:31:21;36.67;;;31.57;;
7881;SDS011;3986;41.884;23.466;2022-12-11T06:33:48;46.47;;;41.03;;
7881;SDS011;3986;41.884;23.466;2022-12-11T06:36:17;35.67;;;31.93;;
7881;SDS011;3986;41.884;23.466;2022-12-11T06:38:46;43.13;;;35.67;;
7881;SDS011;3986;41.884;23.466;2022-12-11T06:41:13;46.07;;;39.23;;
7881;SDS011;3986;41.884;23.466;2022-12-11T06:43:40;55.93;;;49.07;;
7881;SDS011;3986;41.884;23.466;2022-12-11T06:46:08;55.33;;;49.80;;
7881;SDS011;3986;41.884;23.466;2022-12-11T06:48:36;61.60;;;55.60;;
7881;SDS011;3986;41.884;23.466;2022-12-11T06:51:04;69.80;;;62.50;;
7881;SDS011;3986;41.884;23.466;2022-12-11T06:53:33;78.47;;;70.37;;
7881;SDS011;3986;41.884;23.466;2022-12-11T06:56:01;81.40;;;73.43;;
7881;SDS011;3986;41.884;23.466;2022-12-11T06:58:29;70.53;;;63.20;;
7881;SDS011;3986;41.884;23.466;2022-12-11T07:00:56;68.90;;;61.33;;
7881;SDS011;3986;41.884;23.466;2022-12-11T07:03:23;47.77;;;39.10;;
7881;SDS011;3986;41.884;23.466;2022-12-11T07:05:49;50.13;;;42.23;;
7881;SDS011;3986;41.884;23.466;2022-12-11T07:08:16;56.93;;;40.17;;
7881;SDS011;3986;41.884;23.466;2022-12-11T07:10:44;36.90;;;31.33;;
7881;SDS011;3986;41.884;23.466;2022-12-11T07:13:11;30.27;;;22.87;;
7881;SDS011;3986;41.884;23.466;2022-12-11T07:15:38;40.17;;;35.07;;
7881;SDS011;3986;41.884;23.466;2022-12-11T07:18:05;47.80;;;42.97;;
7881;SDS011;3986;41.884;23.466;2022-12-11T07:20:31;57.33;;;49.83;;
7881;SDS011;3986;41.884;23.466;2022-12-11T07:22:58;49.17;;;43.13;;
7881;SDS011;3986;41.884;23.466;2022-12-11T07:25:25;41.30;;;33.47;;
7881;SDS011;3986;41.884;23.466;2022-12-11T07:27:53;69.83;;;62.10;;
7881;SDS011;3986;41.884;23.466;2022-12-11T07:30:20;57.67;;;51.57;;
7881;SDS011;3986;41.884;23.466;2022-12-11T07:32:47;54.73;;;47.10;;
7881;SDS011;3986;41.884;23.466;2022-12-11T07:35:13;47.57;;;37.80;;
7881;SDS011;3986;41.884;23.466;2022-12-11T07:37:40;96.00;;;39.47;;
7881;SDS011;3986;41.884;23.466;2022-12-11T07:40:08;48.23;;;42.00;;
7881;SDS011;3986;41.884;23.466;2022-12-11T07:42:35;47.00;;;38.33;;
7881;SDS011;3986;41.884;23.466;2022-12-11T07:45:03;34.00;;;29.17;;
7881;SDS011;3986;41.884;23.466;2022-12-11T07:47:32;48.87;;;34.27;;
7881;SDS011;3986;41.884;23.466;2022-12-11T07:49:58;85.13;;;62.13;;
7881;SDS011;3986;41.884;23.466;2022-12-11T07:52:25;66.37;;;51.50;;
7881;SDS011;3986;41.884;23.466;2022-12-11T07:54:52;37.73;;;26.07;;
7881;SDS011;3986;41.884;23.466;2022-12-11T07:57:19;44.60;;;35.77;;
7881;SDS011;3986;41.884;23.466;2022-12-11T07:59:45;108.73;;;36.80;;
7881;SDS011;3986;41.884;23.466;2022-12-11T08:02:14;54.67;;;30.57;;
7881;SDS011;3986;41.884;23.466;2022-12-11T08:04:40;41.27;;;36.97;;
7881;SDS011;3986;41.884;23.466;2022-12-11T08:07:07;40.63;;;35.13;;
7881;SDS011;3986;41.884;23.466;2022-12-11T08:09:34;40.93;;;35.27;;
7881;SDS011;3986;41.884;23.466;2022-12-11T08:12:01;71.50;;;63.93;;
7881;SDS011;3986;41.884;23.466;2022-12-11T08:14:27;78.83;;;70.40;;
7881;SDS011;3986;41.884;23.466;2022-12-11T08:16:54;101.10;;;77.17;;
7881;SDS011;3986;41.884;23.466;2022-12-11T08:19:23;89.50;;;72.13;;
7881;SDS011;3986;41.884;23.466;2022-12-11T08:21:50;106.13;;;82.17;;
7881;SDS011;3986;41.884;23.466;2022-12-11T08:24:16;102.87;;;92.23;;
7881;SDS011;3986;41.884;23.466;2022-12-11T08:26:45;112.43;;;100.63;;
7881;SDS011;3986;41.884;23.466;2022-12-11T08:29:12;101.67;;;91.43;;
7881;SDS011;3986;41.884;23.466;2022-12-11T08:31:40;127.57;;;113.97;;
7881;SDS011;3986;41.884;23.466;2022-12-11T08:34:07;151.80;;;133.57;;
7881;SDS011;3986;41.884;23.466;2022-12-11T08:36:39;137.80;;;123.47;;
7881;SDS011;3986;41.884;23.466;2022-12-11T08:39:06;119.63;;;107.53;;
7881;SDS011;3986;41.884;23.466;2022-12-11T08:41:33;108.00;;;97.10;;
7881;SDS011;3986;41.884;23.466;2022-12-11T08:44:00;108.53;;;93.10;;
7881;SDS011;3986;41.884;23.466;2022-12-11T08:46:27;114.47;;;98.57;;
7881;SDS011;3986;41.884;23.466;2022-12-11T08:48:56;114.43;;;102.47;;
7881;SDS011;3986;41.884;23.466;2022-12-11T08:51:24;109.20;;;96.83;;
7881;SDS011;3986;41.884;23.466;2022-12-11T08:53:55;103.40;;;91.30;;
7881;SDS011;3986;41.884;23.466;2022-12-11T08:56:23;105.47;;;93.93;;
7881;SDS011;3986;41.884;23.466;2022-12-11T08:58:50;110.20;;;98.20;;
7881;SDS011;3986;41.884;23.466;2022-12-11T09:01:18;101.93;;;90.00;;
7881;SDS011;3986;41.884;23.466;2022-12-11T09:03:47;121.63;;;110.23;;
7881;SDS011;3986;41.884;23.466;2022-12-11T09:06:15;246.20;;;223.57;;
7881;SDS011;3986;41.884;23.466;2022-12-11T09:08:44;123.67;;;112.37;;
7881;SDS011;3986;41.884;23.466;2022-12-11T09:11:14;93.03;;;83.90;;
7881;SDS011;3986;41.884;23.466;2022-12-11T09:13:44;82.27;;;74.33;;
7881;SDS011;3986;41.884;23.466;2022-12-11T09:16:12;103.63;;;87.40;;
7881;SDS011;3986;41.884;23.466;2022-12-11T09:18:42;91.20;;;81.33;;
7881;SDS011;3986;41.884;23.466;2022-12-11T09:21:11;98.43;;;87.83;;
7881;SDS011;3986;41.884;23.466;2022-12-11T09:23:39;186.40;;;159.93;;
7881;SDS011;3986;41.884;23.466;2022-12-11T09:26:07;172.50;;;150.30;;
7881;SDS011;3986;41.884;23.466;2022-12-11T09:28:37;174.50;;;155.70;;
7881;SDS011;3986;41.884;23.466;2022-12-11T09:31:07;142.97;;;123.50;;
7881;SDS011;3986;41.884;23.466;2022-12-11T09:33:34;134.27;;;121.43;;
7881;SDS011;3986;41.884;23.466;2022-12-11T09:36:01;136.17;;;121.20;;
7881;SDS011;3986;41.884;23.466;2022-12-11T09:38:29;165.87;;;131.83;;
7881;SDS011;3986;41.884;23.466;2022-12-11T09:40:56;128.20;;;113.53;;
7881;SDS011;3986;41.884;23.466;2022-12-11T09:43:28;202.60;;;111.40;;
7881;SDS011;3986;41.884;23.466;2022-12-11T09:46:03;93.67;;;82.33;;
7881;SDS011;3986;41.884;23.466;2022-12-11T09:48:35;111.00;;;100.23;;
7881;SDS011;3986;41.884;23.466;2022-12-11T09:51:04;131.80;;;106.27;;
7881;SDS011;3986;41.884;23.466;2022-12-11T09:53:39;103.53;;;84.53;;
7881;SDS011;3986;41.884;23.466;2022-12-11T09:56:10;58.93;;;37.10;;
7881;SDS011;3986;41.884;23.466;2022-12-11T09:58:47;102.30;;;51.53;;
7881;SDS011;3986;41.884;23.466;2022-12-11T10:01:28;135.03;;;108.50;;
7881;SDS011;3986;41.884;23.466;2022-12-11T10:07:05;92.33;;;71.33;;
7881;SDS011;3986;41.884;23.466;2022-12-11T10:09:41;73.93;;;65.90;;
7881;SDS011;3986;41.884;23.466;2022-12-11T10:12:17;68.03;;;60.67;;
7881;SDS011;3986;41.884;23.466;2022-12-11T10:15:04;78.43;;;59.73;;
7881;SDS011;3986;41.884;23.466;2022-12-11T10:17:44;66.50;;;55.10;;
7881;SDS011;3986;41.884;23.466;2022-12-11T10:20:17;65.63;;;51.67;;
7881;SDS011;3986;41.884;23.466;2022-12-11T10:22:47;62.43;;;55.67;;
7881;SDS011;3986;41.884;23.466;2022-12-11T10:25:18;61.03;;;54.37;;
7881;SDS011;3986;41.884;23.466;2022-12-11T10:27:46;62.13;;;55.13;;
7881;SDS011;3986;41.884;23.466;2022-12-11T10:30:14;50.83;;;34.10;;
7881;SDS011;3986;41.884;23.466;2022-12-11T10:32:46;62.50;;;34.07;;
7881;SDS011;3986;41.884;23.466;2022-12-11T10:35:18;55.20;;;44.10;;
7881;SDS011;3986;41.884;23.466;2022-12-11T10:37:51;45.97;;;35.23;;
7881;SDS011;3986;41.884;23.466;2022-12-11T10:40:22;40.57;;;32.77;;
7881;SDS011;3986;41.884;23.466;2022-12-11T10:42:52;56.77;;;43.43;;
7881;SDS011;3986;41.884;23.466;2022-12-11T10:45:19;98.63;;;42.93;;
7881;SDS011;3986;41.884;23.466;2022-12-11T10:47:47;45.47;;;33.17;;
7881;SDS011;3986;41.884;23.466;2022-12-11T10:50:21;52.60;;;32.50;;
7881;SDS011;3986;41.884;23.466;2022-12-11T10:52:49;64.80;;;41.00;;
7881;SDS011;3986;41.884;23.466;2022-12-11T10:55:18;59.20;;;47.10;;
7881;SDS011;3986;41.884;23.466;2022-12-11T10:57:54;96.43;;;86.60;;
7881;SDS011;3986;41.884;23.466;2022-12-11T11:00:27;56.83;;;31.40;;
7881;SDS011;3986;41.884;23.466;2022-12-11T11:02:58;60.07;;;36.80;;
7881;SDS011;3986;41.884;23.466;2022-12-11T11:05:27;94.73;;;49.70;;
7881;SDS011;3986;41.884;23.466;2022-12-11T11:08:12;73.50;;;46.60;;
7881;SDS011;3986;41.884;23.466;2022-12-11T11:10:50;54.20;;;47.00;;
7881;SDS011;3986;41.884;23.466;2022-12-11T11:13:19;39.30;;;22.50;;
7881;SDS011;3986;41.884;23.466;2022-12-11T11:15:47;28.20;;;17.07;;
7881;SDS011;3986;41.884;23.466;2022-12-11T11:18:18;27.60;;;15.30;;
7881;SDS011;3986;41.884;23.466;2022-12-11T11:20:51;26.43;;;15.33;;
7881;SDS011;3986;41.884;23.466;2022-12-11T11:23:18;28.47;;;15.40;;
7881;SDS011;3986;41.884;23.466;2022-12-11T11:25:50;47.97;;;21.30;;
7881;SDS011;3986;41.884;23.466;2022-12-11T11:28:19;35.70;;;21.80;;
7881;SDS011;3986;41.884;23.466;2022-12-11T11:30:56;42.07;;;24.57;;
7881;SDS011;3986;41.884;23.466;2022-12-11T11:33:27;43.00;;;24.57;;
7881;SDS011;3986;41.884;23.466;2022-12-11T11:35:57;45.03;;;27.93;;
7881;SDS011;3986;41.884;23.466;2022-12-11T11:38:27;34.43;;;26.53;;
7881;SDS011;3986;41.884;23.466;2022-12-11T11:40:59;27.67;;;24.77;;
7881;SDS011;3986;41.884;23.466;2022-12-11T11:43:37;48.90;;;37.70;;
7881;SDS011;3986;41.884;23.466;2022-12-11T11:46:10;50.40;;;44.70;;
7881;SDS011;3986;41.884;23.466;2022-12-11T11:48:44;48.50;;;40.43;;
7881;SDS011;3986;41.884;23.466;2022-12-11T11:51:20;44.60;;;39.73;;
7881;SDS011;3986;41.884;23.466;2022-12-11T11:53:50;45.23;;;39.97;;
7881;SDS011;3986;41.884;23.466;2022-12-11T11:56:21;46.17;;;40.03;;
7881;SDS011;3986;41.884;23.466;2022-12-11T11:58:53;48.20;;;36.17;;
7881;SDS011;3986;41.884;23.466;2022-12-11T12:01:26;47.03;;;39.40;;
7881;SDS011;3986;41.884;23.466;2022-12-11T12:03:56;61.57;;;48.13;;
7881;SDS011;3986;41.884;23.466;2022-12-11T12:09:33;57.97;;;40.23;;
7881;SDS011;3986;41.884;23.466;2022-12-11T12:12:11;52.27;;;40.67;;
7881;SDS011;3986;41.884;23.466;2022-12-11T12:14:48;120.83;;;98.93;;
7881;SDS011;3986;41.884;23.466;2022-12-11T12:17:26;48.57;;;27.77;;
7881;SDS011;3986;41.884;23.466;2022-12-11T12:20:06;54.33;;;36.40;;
7881;SDS011;3986;41.884;23.466;2022-12-11T12:22:46;35.93;;;28.07;;
7881;SDS011;3986;41.884;23.466;2022-12-11T12:25:23;31.70;;;23.10;;
7881;SDS011;3986;41.884;23.466;2022-12-11T12:27:55;47.30;;;27.93;;
7881;SDS011;3986;41.884;23.466;2022-12-11T12:30:34;68.00;;;36.13;;
7881;SDS011;3986;41.884;23.466;2022-12-11T12:33:11;37.43;;;20.70;;
7881;SDS011;3986;41.884;23.466;2022-12-11T12:35:50;32.77;;;22.13;;
7881;SDS011;3986;41.884;23.466;2022-12-11T12:38:22;33.93;;;25.27;;
7881;SDS011;3986;41.884;23.466;2022-12-11T12:40:58;37.70;;;31.33;;
7881;SDS011;3986;41.884;23.466;2022-12-11T12:43:40;55.80;;;27.70;;
7881;SDS011;3986;41.884;23.466;2022-12-11T12:46:19;29.33;;;22.17;;
7881;SDS011;3986;41.884;23.466;2022-12-11T12:48:54;37.23;;;31.33;;
7881;SDS011;3986;41.884;23.466;2022-12-11T12:51:25;50.70;;;33.23;;
7881;SDS011;3986;41.884;23.466;2022-12-11T12:53:53;43.33;;;34.07;;
7881;SDS011;3986;41.884;23.466;2022-12-11T12:56:23;60.87;;;48.20;;
7881;SDS011;3986;41.884;23.466;2022-12-11T12:58:51;89.03;;;62.70;;
7881;SDS011;3986;41.884;23.466;2022-12-11T13:01:18;66.97;;;59.97;;
7881;SDS011;3986;41.884;23.466;2022-12-11T13:03:50;120.43;;;94.23;;
7881;SDS011;3986;41.884;23.466;2022-12-11T13:06:29;87.50;;;57.00;;
7881;SDS011;3986;41.884;23.466;2022-12-11T13:09:08;69.00;;;40.47;;
7881;SDS011;3986;41.884;23.466;2022-12-11T13:11:39;61.30;;;33.10;;
7881;SDS011;3986;41.884;23.466;2022-12-11T13:14:20;41.57;;;29.03;;
7881;SDS011;3986;41.884;23.466;2022-12-11T13:16:51;73.23;;;63.03;;
7881;SDS011;3986;41.884;23.466;2022-12-11T13:19:30;66.83;;;39.43;;
7881;SDS011;3986;41.884;23.466;2022-12-11T13:22:02;55.17;;;34.20;;
7881;SDS011;3986;41.884;23.466;2022-12-11T13:24:45;41.53;;;33.93;;
7881;SDS011;3986;41.884;23.466;2022-12-11T13:27:21;46.50;;;29.97;;
7881;SDS011;3986;41.884;23.466;2022-12-11T13:29:50;58.37;;;35.63;;
7881;SDS011;3986;41.884;23.466;2022-12-11T13:32:21;62.70;;;42.63;;
7881;SDS011;3986;41.884;23.466;2022-12-11T13:34:50;53.10;;;39.70;;
7881;SDS011;3986;41.884;23.466;2022-12-11T13:37:22;68.50;;;46.40;;
7881;SDS011;3986;41.884;23.466;2022-12-11T13:39:52;77.00;;;64.10;;
7881;SDS011;3986;41.884;23.466;2022-12-11T13:42:20;102.10;;;83.53;;
7881;SDS011;3986;41.884;23.466;2022-12-11T13:44:51;89.67;;;67.83;;
7881;SDS011;3986;41.884;23.466;2022-12-11T13:47:17;67.07;;;60.13;;
7881;SDS011;3986;41.884;23.466;2022-12-11T13:49:46;86.00;;;62.07;;
7881;SDS011;3986;41.884;23.466;2022-12-11T13:52:16;72.50;;;53.93;;
7881;SDS011;3986;41.884;23.466;2022-12-11T13:54:47;64.43;;;48.03;;
7881;SDS011;3986;41.884;23.466;2022-12-11T13:57:15;53.53;;;45.37;;
7881;SDS011;3986;41.884;23.466;2022-12-11T13:59:46;57.70;;;43.13;;
7881;SDS011;3986;41.884;23.466;2022-12-11T14:02:17;49.83;;;39.93;;
7881;SDS011;3986;41.884;23.466;2022-12-11T14:04:46;43.87;;;39.37;;
7881;SDS011;3986;41.884;23.466;2022-12-11T14:07:15;41.43;;;37.03;;
7881;SDS011;3986;41.884;23.466;2022-12-11T14:09:49;36.47;;;32.57;;
7881;SDS011;3986;41.884;23.466;2022-12-11T14:12:17;49.50;;;36.93;;
7881;SDS011;3986;41.884;23.466;2022-12-11T14:14:47;45.00;;;35.47;;
7881;SDS011;3986;41.884;23.466;2022-12-11T14:17:19;49.43;;;40.90;;
7881;SDS011;3986;41.884;23.466;2022-12-11T14:19:49;61.17;;;47.90;;
7881;SDS011;3986;41.884;23.466;2022-12-11T14:22:17;59.53;;;52.97;;
7881;SDS011;3986;41.884;23.466;2022-12-11T14:24:50;46.57;;;35.53;;
7881;SDS011;3986;41.884;23.466;2022-12-11T14:27:19;40.50;;;35.07;;
7881;SDS011;3986;41.884;23.466;2022-12-11T14:29:47;56.47;;;43.30;;
7881;SDS011;3986;41.884;23.466;2022-12-11T14:32:16;52.77;;;46.93;;
7881;SDS011;3986;41.884;23.466;2022-12-11T14:34:46;51.37;;;45.50;;
7881;SDS011;3986;41.884;23.466;2022-12-11T14:37:15;41.30;;;31.97;;
7881;SDS011;3986;41.884;23.466;2022-12-11T14:39:45;58.80;;;33.83;;
7881;SDS011;3986;41.884;23.466;2022-12-11T14:42:18;40.93;;;30.73;;
7881;SDS011;3986;41.884;23.466;2022-12-11T14:44:48;47.47;;;27.27;;
7881;SDS011;3986;41.884;23.466;2022-12-11T14:47:19;40.97;;;27.47;;
7881;SDS011;3986;41.884;23.466;2022-12-11T14:49:50;25.43;;;22.93;;
7881;SDS011;3986;41.884;23.466;2022-12-11T14:52:20;26.23;;;21.87;;
7881;SDS011;3986;41.884;23.466;2022-12-11T14:54:52;37.90;;;18.13;;
7881;SDS011;3986;41.884;23.466;2022-12-11T14:57:24;30.93;;;16.47;;